Saint-Tite, Canada
Current Conditions -  °F | °C
As of 9:00 PM on Wednesday 22 Oct 2014 (Local Time) from CYRQ Reporting Station
Few Clouds Few Clouds  
Wind Chill: 38°   Ceiling: Unl
Heat Index: 43°   Visibility: 9mi
Dew Point: 36°   Wind: 8mph
Humidity: 76%   Direction: 40°NE
Pressure: 30.29"   Gusts: NA
Location:  46.72°N, 72.57°W
Report Text: CYRQ 230100Z AUTO 04007KT 9SM FEW210 06/02 A3029 RMK SLP259
Loading
Personal Weather Stations






























Interactive Weather Map
Tropical Storm Tracking
New forecast layout! Learn more

10-Day Weather Forecast

Advertisements
Track Severe Weather on mobile